createdAt,value
2022-10-13T00:02:32.125Z,101155.48
2022-10-13T00:06:33.970Z,101155.52
2022-10-13T00:10:38.406Z,101157.55
2022-10-13T00:14:41.733Z,101156.82
2022-10-13T00:18:45.286Z,101159.48
2022-10-13T00:22:47.163Z,101156.61
2022-10-13T00:26:50.175Z,101153.98
2022-10-13T00:30:53.996Z,101152.59
2022-10-13T00:34:57.236Z,101153.63
2022-10-13T00:38:59.120Z,101150.52
2022-10-13T00:43:01.016Z,101150.27
2022-10-13T00:47:02.979Z,101149.48
2022-10-13T00:51:07.423Z,101148.94
2022-10-13T00:55:13.188Z,101147.43
2022-10-13T00:59:23.721Z,101147.77
2022-10-13T01:03:28.329Z,101142.64
2022-10-13T01:07:31.217Z,101142.16
2022-10-13T01:11:46.329Z,101140.27
2022-10-13T01:15:57.612Z,101138.63
2022-10-13T01:19:59.371Z,101134.13
2022-10-13T01:24:32.430Z,101128.17
2022-10-13T01:28:52.847Z,101120.80
2022-10-13T01:33:16.045Z,101116.69
2022-10-13T01:38:00.333Z,101116.41
2022-10-13T01:42:12.875Z,101110.86
2022-10-13T01:46:34.617Z,101108.52
2022-10-13T01:50:38.348Z,101108.45
2022-10-13T01:54:40.406Z,101103.09
2022-10-13T01:58:42.809Z,101105.55
2022-10-13T02:02:48.173Z,101104.48
2022-10-13T02:07:09.386Z,101104.30
2022-10-13T02:11:17.049Z,101106.31
2022-10-13T02:15:23.132Z,101106.24
2022-10-13T02:19:25.613Z,101104.51
2022-10-13T02:23:28.441Z,101106.20
2022-10-13T02:27:30.372Z,101099.71
2022-10-13T02:31:32.293Z,101098.25
2022-10-13T02:35:34.466Z,101098.58
2022-10-13T02:39:37.082Z,101096.08
2022-10-13T02:43:39.042Z,101094.79
2022-10-13T02:47:40.984Z,101091.42
2022-10-13T02:51:42.775Z,101088.31
2022-10-13T02:55:44.637Z,101092.05
2022-10-13T02:59:46.494Z,101090.34
2022-10-13T03:03:48.382Z,101084.75
2022-10-13T03:07:50.212Z,101083.79
2022-10-13T03:11:52.040Z,101084.19
2022-10-13T03:15:53.899Z,101081.48
2022-10-13T03:19:55.798Z,101084.89
2022-10-13T03:23:57.672Z,101085.75
2022-10-13T03:28:00.856Z,101091.36
2022-10-13T03:32:03.006Z,101090.09
2022-10-13T03:36:05.628Z,101090.27
2022-10-13T03:40:08.416Z,101088.84
2022-10-13T03:44:15.302Z,101088.37
2022-10-13T03:48:17.199Z,101081.20
2022-10-13T03:52:19.221Z,101081.02
2022-10-13T03:56:24.701Z,101074.33
2022-10-13T04:00:26.956Z,101073.04
2022-10-13T04:04:28.749Z,101069.50
2022-10-13T04:08:32.768Z,101061.05
2022-10-13T04:12:34.825Z,101058.13
2022-10-13T04:16:39.209Z,101060.98
2022-10-13T04:20:41.576Z,101063.45
2022-10-13T04:24:43.576Z,101065.14
2022-10-13T04:28:47.468Z,101064.92
2022-10-13T04:32:49.340Z,101066.99
2022-10-13T04:36:52.761Z,101068.72
2022-10-13T04:40:54.548Z,101066.34
2022-10-13T04:44:56.446Z,101064.73
2022-10-13T04:48:59.340Z,101066.86
2022-10-13T04:53:07.106Z,101066.42
2022-10-13T04:57:08.932Z,101069.17
2022-10-13T05:01:17.669Z,101064.80
2022-10-13T05:05:23.141Z,101065.89
2022-10-13T05:09:25.233Z,101068.38
2022-10-13T05:13:29.164Z,101077.71
2022-10-13T05:17:35.258Z,101077.90
2022-10-13T05:21:42.587Z,101078.98
2022-10-13T05:25:44.679Z,101081.30
2022-10-13T05:29:47.869Z,101079.92
2022-10-13T05:33:51.652Z,101077.89
2022-10-13T05:37:57.322Z,101082.02
2022-10-13T05:41:59.171Z,101081.18
2022-10-13T05:46:01.632Z,101082.77
2022-10-13T05:50:04.936Z,101082.58
2022-10-13T05:54:12.920Z,101081.91
2022-10-13T05:58:15.293Z,101085.52
2022-10-13T06:02:21.692Z,101085.55
2022-10-13T06:06:27.915Z,101092.10
2022-10-13T06:10:33.191Z,101093.48
2022-10-13T06:14:35.578Z,101093.85
2022-10-13T06:18:41.073Z,101093.70
2022-10-13T06:22:43.009Z,101098.73
2022-10-13T06:26:44.914Z,101098.45
2022-10-13T06:30:53.063Z,101098.34
2022-10-13T06:34:55.871Z,101098.97
2022-10-13T06:38:57.741Z,101104.09
2022-10-13T06:42:59.917Z,101101.55
2022-10-13T06:47:03.281Z,101101.30
2022-10-13T06:51:10.176Z,101097.25
2022-10-13T06:55:12.185Z,101097.54
2022-10-13T06:59:14.156Z,101096.83
2022-10-13T07:03:20.045Z,101097.18
2022-10-13T07:07:22.084Z,101097.80
2022-10-13T07:11:24.649Z,101096.18
2022-10-13T07:15:29.700Z,101091.51
2022-10-13T07:19:31.655Z,101095.15
2022-10-13T07:23:33.641Z,101096.06
2022-10-13T07:27:37.621Z,101096.45
2022-10-13T07:31:41.846Z,101100.25
2022-10-13T07:35:43.727Z,101101.69
2022-10-13T07:39:45.542Z,101099.46
2022-10-13T07:43:47.614Z,101099.17
2022-10-13T07:47:49.696Z,101093.82
2022-10-13T07:51:51.988Z,101093.42
2022-10-13T07:55:55.093Z,101090.94
2022-10-13T07:59:57.182Z,101089.73
2022-10-13T08:03:59.065Z,101083.90
2022-10-13T08:08:00.949Z,101077.95
2022-10-13T08:12:03.442Z,101076.36
2022-10-13T08:16:05.537Z,101067.54
2022-10-13T08:20:07.881Z,101061.13
2022-10-13T08:24:13.401Z,101057.22
2022-10-13T08:28:17.468Z,101054.54
2022-10-13T08:32:20.886Z,101051.80
2022-10-13T08:36:23.484Z,101049.34
2022-10-13T08:40:25.631Z,101044.98
2022-10-13T08:45:10.789Z,101042.84
2022-10-13T08:49:05.465Z,101035.81
2022-10-13T08:53:16.111Z,101028.48
2022-10-13T08:57:21.994Z,101027.33
2022-10-13T09:01:36.106Z,101024.55
2022-10-13T09:05:49.615Z,101023.08
2022-10-13T09:09:53.050Z,101024.06
2022-10-13T09:13:57.512Z,101020.77
2022-10-13T09:18:12.641Z,101015.77
2022-10-13T09:22:38.742Z,101007.59
2022-10-13T09:26:41.855Z,101005.48
2022-10-13T09:30:46.643Z,101004.00
2022-10-13T09:34:49.285Z,101001.50
2022-10-13T09:39:14.192Z,101002.34
2022-10-13T09:43:31.762Z,101000.54
2022-10-13T09:47:34.138Z,100997.71
2022-10-13T09:51:40.469Z,100995.20
2022-10-13T09:56:23.251Z,100991.67
2022-10-13T10:00:27.537Z,100988.48
2022-10-13T10:04:37.374Z,100985.29
2022-10-13T10:09:02.664Z,100977.21
2022-10-13T10:13:12.535Z,100968.16
2022-10-13T10:17:26.520Z,100963.41
2022-10-13T10:21:43.149Z,100961.98
2022-10-13T10:25:58.805Z,100956.73
2022-10-13T10:30:12.604Z,100950.84
2022-10-13T10:34:32.523Z,100945.57
2022-10-13T10:38:42.312Z,100944.30
2022-10-13T10:42:52.353Z,100941.55
2022-10-13T10:47:02.439Z,100940.24
2022-10-13T10:51:09.736Z,100938.52
2022-10-13T10:55:26.151Z,100939.32
2022-10-13T10:59:41.219Z,100928.09
2022-10-13T11:03:47.179Z,100921.30
2022-10-13T11:07:51.913Z,100918.20
2022-10-13T11:11:53.901Z,100909.77
2022-10-13T11:15:56.088Z,100907.58
2022-10-13T11:19:58.982Z,100901.23
2022-10-13T11:24:02.255Z,100897.02
2022-10-13T11:28:22.661Z,100893.30
2022-10-13T11:32:30.272Z,100880.54
2022-10-13T11:36:38.959Z,100873.96
2022-10-13T11:40:56.435Z,100870.83
2022-10-13T11:45:03.838Z,100861.02
2022-10-13T11:49:07.451Z,100855.58
2022-10-13T11:53:23.924Z,100850.45
2022-10-13T11:57:27.780Z,100843.09
2022-10-13T12:01:29.787Z,100834.87
2022-10-13T12:05:32.361Z,100829.77
2022-10-13T12:09:39.402Z,100826.67
2022-10-13T12:13:46.184Z,100817.79
2022-10-13T12:17:50.180Z,100816.01
2022-10-13T12:21:55.202Z,100811.52
2022-10-13T12:25:58.414Z,100809.26
2022-10-13T12:30:01.761Z,100802.26
2022-10-13T12:34:04.363Z,100799.22
2022-10-13T12:38:18.972Z,100794.33
2022-10-13T12:42:29.098Z,100795.88
2022-10-13T12:46:42.553Z,100790.50
2022-10-13T12:50:44.491Z,100789.46
2022-10-13T12:54:55.737Z,100788.26
2022-10-13T12:58:59.200Z,100788.63
2022-10-13T13:03:04.067Z,100784.20
2022-10-13T13:07:36.598Z,100783.33
2022-10-13T13:11:39.237Z,100780.37
2022-10-13T13:15:44.212Z,100776.85
2022-10-13T13:19:55.214Z,100777.67
2022-10-13T13:23:57.067Z,100775.11
2022-10-13T13:27:58.932Z,100774.21
2022-10-13T13:32:00.747Z,100773.41
2022-10-13T13:36:02.595Z,100772.33
2022-10-13T13:40:06.317Z,100769.11
2022-10-13T13:44:08.205Z,100768.59
2022-10-13T13:48:12.575Z,100764.81
2022-10-13T13:52:15.172Z,100763.73
2022-10-13T13:56:18.641Z,100759.08
2022-10-13T14:00:21.225Z,100749.45
2022-10-13T14:04:29.564Z,100748.70
2022-10-13T14:08:33.902Z,100754.36
2022-10-13T14:12:37.275Z,100755.31
2022-10-13T14:16:41.077Z,100752.23
2022-10-13T14:20:43.377Z,100756.39
2022-10-13T14:24:45.419Z,100755.55
2022-10-13T14:28:47.529Z,100749.14
2022-10-13T14:32:49.443Z,100746.80
2022-10-13T14:36:51.418Z,100743.25
2022-10-13T14:41:03.896Z,100740.54
2022-10-13T14:45:06.333Z,100736.17
2022-10-13T14:49:10.417Z,100733.13
2022-10-13T14:53:15.996Z,100735.24
2022-10-13T14:57:18.233Z,100730.42
2022-10-13T15:01:20.672Z,100725.28
2022-10-13T15:05:22.639Z,100725.48
2022-10-13T15:09:33.493Z,100727.55
2022-10-13T15:13:48.764Z,100719.80
2022-10-13T15:17:50.631Z,100709.55
2022-10-13T15:21:52.908Z,100708.98
2022-10-13T15:25:57.993Z,100712.66
2022-10-13T15:30:00.228Z,100715.72
2022-10-13T15:34:02.109Z,100714.27
2022-10-13T15:38:03.909Z,100717.31
2022-10-13T15:42:05.784Z,100712.38
2022-10-13T15:46:11.806Z,100707.36
2022-10-13T15:50:14.711Z,100706.51
2022-10-13T15:54:17.315Z,100706.46
2022-10-13T15:58:19.193Z,100704.98
2022-10-13T16:02:23.045Z,100709.52
2022-10-13T16:06:26.260Z,100711.82
2022-10-13T16:10:28.125Z,100711.00
2022-10-13T16:14:30.106Z,100708.73
2022-10-13T16:18:36.017Z,100709.69
2022-10-13T16:22:38.100Z,100706.75
2022-10-13T16:26:40.397Z,100702.70
2022-10-13T16:30:42.765Z,100697.73
2022-10-13T16:34:47.455Z,100696.78
2022-10-13T16:38:54.446Z,100693.73
2022-10-13T16:42:56.227Z,100691.28
2022-10-13T16:47:00.112Z,100690.16
2022-10-13T16:51:11.850Z,100687.30
2022-10-13T16:55:15.246Z,100688.71
2022-10-13T16:59:17.423Z,100691.71
2022-10-13T17:03:19.340Z,100692.84
2022-10-13T17:07:23.219Z,100693.05
2022-10-13T17:11:28.308Z,100691.41
2022-10-13T17:15:30.183Z,100686.67
2022-10-13T17:19:32.204Z,100693.16
2022-10-13T17:23:34.444Z,100688.17
2022-10-13T17:27:36.984Z,100683.57
2022-10-13T17:31:38.914Z,100682.63
2022-10-13T17:35:40.866Z,100686.83
2022-10-13T17:39:42.933Z,100682.05
2022-10-13T17:43:45.040Z,100685.13
2022-10-13T17:47:48.764Z,100680.13
2022-10-13T17:51:53.131Z,100674.59
2022-10-13T17:56:02.762Z,100673.82
2022-10-13T18:00:06.018Z,100677.75
2022-10-13T18:04:17.327Z,100677.13
2022-10-13T18:08:20.024Z,100675.80
2022-10-13T18:12:21.907Z,100679.79
2022-10-13T18:16:24.052Z,100669.58
2022-10-13T18:20:26.597Z,100663.69
2022-10-13T18:24:28.533Z,100662.27
2022-10-13T18:28:32.278Z,100667.16
2022-10-13T18:32:34.266Z,100669.71
2022-10-13T18:36:38.448Z,100664.67
2022-10-13T18:40:43.486Z,100658.23
2022-10-13T18:44:45.541Z,100660.61
2022-10-13T18:48:47.479Z,100654.60
2022-10-13T18:52:49.332Z,100653.80
2022-10-13T18:56:52.720Z,100654.96
2022-10-13T19:00:59.860Z,100655.90
2022-10-13T19:05:02.026Z,100649.77
2022-10-13T19:09:07.306Z,100650.20
2022-10-13T19:13:11.135Z,100650.73
2022-10-13T19:17:13.213Z,100642.06
2022-10-13T19:21:16.244Z,100636.97
2022-10-13T19:25:18.238Z,100639.98
2022-10-13T19:29:20.296Z,100638.30
2022-10-13T19:33:22.209Z,100637.29
2022-10-13T19:37:24.150Z,100635.41
2022-10-13T19:41:28.652Z,100632.03
2022-10-13T19:45:31.289Z,100638.04
2022-10-13T19:49:33.194Z,100633.73
2022-10-13T19:53:36.495Z,100630.20
2022-10-13T19:57:38.651Z,100629.94
2022-10-13T20:01:40.631Z,100630.63
2022-10-13T20:05:47.404Z,100636.71
2022-10-13T20:09:49.267Z,100636.13
2022-10-13T20:13:52.371Z,100637.89
2022-10-13T20:17:54.231Z,100631.27
2022-10-13T20:21:56.095Z,100625.60
2022-10-13T20:26:06.460Z,100625.15
2022-10-13T20:30:10.177Z,100626.23
2022-10-13T20:34:12.140Z,100623.52
2022-10-13T20:38:14.321Z,100623.00
2022-10-13T20:42:16.232Z,100627.02
2022-10-13T20:46:21.162Z,100617.27
2022-10-13T20:50:23.014Z,100621.74
2022-10-13T20:54:24.973Z,100615.70
2022-10-13T20:58:30.371Z,100613.78
2022-10-13T21:02:32.909Z,100610.00
2022-10-13T21:06:36.010Z,100606.86
2022-10-13T21:10:37.979Z,100610.11
2022-10-13T21:14:40.163Z,100605.60
2022-10-13T21:18:51.346Z,100605.27
2022-10-13T21:22:54.313Z,100598.90
2022-10-13T21:26:56.234Z,100598.09
2022-10-13T21:31:00.129Z,100599.94
2022-10-13T21:35:02.282Z,100605.08
2022-10-13T21:39:05.615Z,100603.55
2022-10-13T21:43:08.037Z,100597.50
2022-10-13T21:47:09.919Z,100595.02
2022-10-13T21:51:15.312Z,100588.80
2022-10-13T21:55:17.168Z,100581.90
2022-10-13T21:59:19.958Z,100584.30
2022-10-13T22:03:21.792Z,100586.16
2022-10-13T22:07:23.721Z,100585.29
2022-10-13T22:11:28.685Z,100579.27
2022-10-13T22:15:33.992Z,100577.07
2022-10-13T22:19:36.489Z,100578.80
2022-10-13T22:23:38.434Z,100577.98
2022-10-13T22:27:40.277Z,100575.45
2022-10-13T22:31:42.344Z,100574.50
2022-10-13T22:35:46.297Z,100569.48
2022-10-13T22:39:49.077Z,100567.64
2022-10-13T22:43:55.945Z,100566.05
2022-10-13T22:47:57.955Z,100568.14
2022-10-13T22:51:59.785Z,100572.98
2022-10-13T22:56:05.680Z,100574.37
2022-10-13T23:00:09.770Z,100572.41
2022-10-13T23:04:13.585Z,100572.67
2022-10-13T23:08:15.555Z,100572.48
2022-10-13T23:12:17.956Z,100571.96
2022-10-13T23:16:23.105Z,100567.61
2022-10-13T23:20:25.079Z,100567.75
2022-10-13T23:24:27.094Z,100568.52
2022-10-13T23:28:30.129Z,100565.16
2022-10-13T23:32:32.252Z,100567.02
2022-10-13T23:36:34.203Z,100566.16
2022-10-13T23:40:36.312Z,100557.12
2022-10-13T23:44:38.690Z,100556.35
2022-10-13T23:48:41.097Z,100552.52
2022-10-13T23:52:43.001Z,100545.71
2022-10-13T23:56:44.863Z,100548.52
